sensor_id;sensor_type;location;lat;lon;timestamp;P1;durP1;ratioP1;P2;durP2;ratioP2
76284;SDS011;65096;50.998;7.098;2023-04-15T00:00:32;8.90;;;3.85;;
76284;SDS011;65096;50.998;7.098;2023-04-15T00:02:59;7.30;;;3.03;;
76284;SDS011;65096;50.998;7.098;2023-04-15T00:05:26;8.35;;;2.83;;
76284;SDS011;65096;50.998;7.098;2023-04-15T00:07:55;7.35;;;2.72;;
76284;SDS011;65096;50.998;7.098;2023-04-15T00:10:23;6.07;;;2.40;;
76284;SDS011;65096;50.998;7.098;2023-04-15T00:12:50;6.03;;;2.35;;
76284;SDS011;65096;50.998;7.098;2023-04-15T00:15:17;6.60;;;2.50;;
76284;SDS011;65096;50.998;7.098;2023-04-15T00:17:44;9.75;;;3.05;;
76284;SDS011;65096;50.998;7.098;2023-04-15T00:20:11;6.63;;;2.70;;
76284;SDS011;65096;50.998;7.098;2023-04-15T00:22:38;8.00;;;3.05;;
76284;SDS011;65096;50.998;7.098;2023-04-15T00:25:05;6.90;;;3.22;;
76284;SDS011;65096;50.998;7.098;2023-04-15T00:27:34;8.73;;;3.03;;
76284;SDS011;65096;50.998;7.098;2023-04-15T00:30:02;6.78;;;2.75;;
76284;SDS011;65096;50.998;7.098;2023-04-15T00:32:29;9.10;;;3.15;;
76284;SDS011;65096;50.998;7.098;2023-04-15T00:34:56;5.93;;;2.58;;
76284;SDS011;65096;50.998;7.098;2023-04-15T00:37:22;9.30;;;2.85;;
76284;SDS011;65096;50.998;7.098;2023-04-15T00:39:49;7.30;;;2.92;;
76284;SDS011;65096;50.998;7.098;2023-04-15T00:42:16;9.38;;;2.95;;
76284;SDS011;65096;50.998;7.098;2023-04-15T00:44:45;6.72;;;2.67;;
76284;SDS011;65096;50.998;7.098;2023-04-15T00:47:12;5.18;;;2.25;;
76284;SDS011;65096;50.998;7.098;2023-04-15T00:49:40;6.43;;;2.42;;
76284;SDS011;65096;50.998;7.098;2023-04-15T00:52:06;7.85;;;2.33;;
76284;SDS011;65096;50.998;7.098;2023-04-15T00:54:34;7.57;;;2.53;;
76284;SDS011;65096;50.998;7.098;2023-04-15T00:57:01;7.78;;;2.45;;
76284;SDS011;65096;50.998;7.098;2023-04-15T00:59:30;6.20;;;2.30;;
76284;SDS011;65096;50.998;7.098;2023-04-15T01:02:00;8.00;;;2.55;;
76284;SDS011;65096;50.998;7.098;2023-04-15T01:04:27;10.82;;;2.88;;
76284;SDS011;65096;50.998;7.098;2023-04-15T01:06:54;5.32;;;2.53;;
76284;SDS011;65096;50.998;7.098;2023-04-15T01:09:20;4.75;;;2.28;;
76284;SDS011;65096;50.998;7.098;2023-04-15T01:11:47;6.72;;;2.60;;
76284;SDS011;65096;50.998;7.098;2023-04-15T01:14:14;7.10;;;2.30;;
76284;SDS011;65096;50.998;7.098;2023-04-15T01:16:41;6.85;;;2.60;;
76284;SDS011;65096;50.998;7.098;2023-04-15T01:19:10;6.60;;;2.78;;
76284;SDS011;65096;50.998;7.098;2023-04-15T01:21:42;6.45;;;2.33;;
76284;SDS011;65096;50.998;7.098;2023-04-15T01:24:09;7.35;;;2.63;;
76284;SDS011;65096;50.998;7.098;2023-04-15T01:26:38;5.53;;;2.13;;
76284;SDS011;65096;50.998;7.098;2023-04-15T01:29:05;8.05;;;2.85;;
76284;SDS011;65096;50.998;7.098;2023-04-15T01:31:32;6.68;;;2.53;;
76284;SDS011;65096;50.998;7.098;2023-04-15T01:33:59;4.97;;;2.30;;
76284;SDS011;65096;50.998;7.098;2023-04-15T01:36:26;6.00;;;2.30;;
76284;SDS011;65096;50.998;7.098;2023-04-15T01:38:54;4.18;;;2.05;;
76284;SDS011;65096;50.998;7.098;2023-04-15T01:41:23;6.93;;;2.80;;
76284;SDS011;65096;50.998;7.098;2023-04-15T01:43:52;5.47;;;2.13;;
76284;SDS011;65096;50.998;7.098;2023-04-15T01:46:19;6.88;;;2.30;;
76284;SDS011;65096;50.998;7.098;2023-04-15T01:48:45;8.45;;;2.20;;
76284;SDS011;65096;50.998;7.098;2023-04-15T01:51:12;5.85;;;2.17;;
76284;SDS011;65096;50.998;7.098;2023-04-15T01:53:38;4.43;;;2.10;;
76284;SDS011;65096;50.998;7.098;2023-04-15T01:56:06;6.25;;;2.50;;
76284;SDS011;65096;50.998;7.098;2023-04-15T01:58:33;5.75;;;2.15;;
76284;SDS011;65096;50.998;7.098;2023-04-15T02:01:01;6.30;;;2.40;;
76284;SDS011;65096;50.998;7.098;2023-04-15T02:03:28;5.20;;;2.45;;
76284;SDS011;65096;50.998;7.098;2023-04-15T02:05:55;4.72;;;2.20;;
76284;SDS011;65096;50.998;7.098;2023-04-15T02:08:22;6.60;;;2.53;;
76284;SDS011;65096;50.998;7.098;2023-04-15T02:10:49;8.05;;;2.47;;
76284;SDS011;65096;50.998;7.098;2023-04-15T02:13:16;7.00;;;2.42;;
76284;SDS011;65096;50.998;7.098;2023-04-15T02:15:45;5.10;;;2.38;;
76284;SDS011;65096;50.998;7.098;2023-04-15T02:18:14;6.47;;;2.47;;
76284;SDS011;65096;50.998;7.098;2023-04-15T02:20:40;5.82;;;2.30;;
76284;SDS011;65096;50.998;7.098;2023-04-15T02:23:08;7.50;;;2.30;;
76284;SDS011;65096;50.998;7.098;2023-04-15T02:25:35;5.82;;;2.58;;
76284;SDS011;65096;50.998;7.098;2023-04-15T02:28:03;6.90;;;2.25;;
76284;SDS011;65096;50.998;7.098;2023-04-15T02:30:30;5.97;;;2.50;;
76284;SDS011;65096;50.998;7.098;2023-04-15T02:32:56;6.68;;;2.70;;
76284;SDS011;65096;50.998;7.098;2023-04-15T02:35:24;7.47;;;2.67;;
76284;SDS011;65096;50.998;7.098;2023-04-15T02:37:51;6.30;;;2.78;;
76284;SDS011;65096;50.998;7.098;2023-04-15T02:40:18;8.10;;;3.30;;
76284;SDS011;65096;50.998;7.098;2023-04-15T02:42:45;6.22;;;2.42;;
76284;SDS011;65096;50.998;7.098;2023-04-15T02:45:11;6.18;;;2.50;;
76284;SDS011;65096;50.998;7.098;2023-04-15T02:47:38;6.60;;;2.60;;
76284;SDS011;65096;50.998;7.098;2023-04-15T02:50:06;6.95;;;2.85;;
76284;SDS011;65096;50.998;7.098;2023-04-15T02:52:37;7.18;;;2.58;;
76284;SDS011;65096;50.998;7.098;2023-04-15T02:55:05;6.88;;;2.88;;
76284;SDS011;65096;50.998;7.098;2023-04-15T02:57:33;7.15;;;2.63;;
76284;SDS011;65096;50.998;7.098;2023-04-15T03:00:01;6.18;;;2.42;;
76284;SDS011;65096;50.998;7.098;2023-04-15T03:02:32;6.35;;;2.83;;
76284;SDS011;65096;50.998;7.098;2023-04-15T03:05:00;7.80;;;2.65;;
76284;SDS011;65096;50.998;7.098;2023-04-15T03:07:26;6.65;;;2.60;;
76284;SDS011;65096;50.998;7.098;2023-04-15T03:09:54;5.80;;;2.63;;
76284;SDS011;65096;50.998;7.098;2023-04-15T03:12:21;5.38;;;2.67;;
76284;SDS011;65096;50.998;7.098;2023-04-15T03:14:47;8.35;;;2.92;;
76284;SDS011;65096;50.998;7.098;2023-04-15T03:17:14;6.00;;;2.85;;
76284;SDS011;65096;50.998;7.098;2023-04-15T03:19:41;6.25;;;2.80;;
76284;SDS011;65096;50.998;7.098;2023-04-15T03:22:07;6.65;;;2.55;;
76284;SDS011;65096;50.998;7.098;2023-04-15T03:24:34;6.90;;;2.78;;
76284;SDS011;65096;50.998;7.098;2023-04-15T03:27:02;6.25;;;2.70;;
76284;SDS011;65096;50.998;7.098;2023-04-15T03:29:30;6.85;;;2.70;;
76284;SDS011;65096;50.998;7.098;2023-04-15T03:31:57;6.85;;;2.50;;
76284;SDS011;65096;50.998;7.098;2023-04-15T03:34:23;6.20;;;2.65;;
76284;SDS011;65096;50.998;7.098;2023-04-15T03:36:50;6.88;;;3.38;;
76284;SDS011;65096;50.998;7.098;2023-04-15T03:39:16;6.35;;;2.83;;
76284;SDS011;65096;50.998;7.098;2023-04-15T03:41:43;5.40;;;2.70;;
76284;SDS011;65096;50.998;7.098;2023-04-15T03:44:11;5.88;;;2.35;;
76284;SDS011;65096;50.998;7.098;2023-04-15T03:46:38;5.90;;;2.70;;
76284;SDS011;65096;50.998;7.098;2023-04-15T03:49:05;6.47;;;2.85;;
76284;SDS011;65096;50.998;7.098;2023-04-15T03:51:32;8.45;;;2.92;;
76284;SDS011;65096;50.998;7.098;2023-04-15T03:53:58;6.28;;;2.83;;
76284;SDS011;65096;50.998;7.098;2023-04-15T03:56:26;6.78;;;2.65;;
76284;SDS011;65096;50.998;7.098;2023-04-15T03:58:52;6.38;;;2.80;;
76284;SDS011;65096;50.998;7.098;2023-04-15T04:01:21;6.50;;;2.83;;
76284;SDS011;65096;50.998;7.098;2023-04-15T04:03:48;7.70;;;3.00;;
76284;SDS011;65096;50.998;7.098;2023-04-15T04:06:14;6.38;;;2.78;;
76284;SDS011;65096;50.998;7.098;2023-04-15T04:08:41;7.25;;;2.88;;
76284;SDS011;65096;50.998;7.098;2023-04-15T04:11:08;6.57;;;2.80;;
76284;SDS011;65096;50.998;7.098;2023-04-15T04:13:35;7.18;;;3.25;;
76284;SDS011;65096;50.998;7.098;2023-04-15T04:16:02;8.40;;;3.10;;
76284;SDS011;65096;50.998;7.098;2023-04-15T04:18:30;7.47;;;2.95;;
76284;SDS011;65096;50.998;7.098;2023-04-15T04:20:57;7.38;;;3.05;;
76284;SDS011;65096;50.998;7.098;2023-04-15T04:23:24;7.75;;;4.00;;
76284;SDS011;65096;50.998;7.098;2023-04-15T04:25:51;6.63;;;3.22;;
76284;SDS011;65096;50.998;7.098;2023-04-15T04:28:17;5.88;;;2.88;;
76284;SDS011;65096;50.998;7.098;2023-04-15T04:30:44;7.25;;;2.85;;
76284;SDS011;65096;50.998;7.098;2023-04-15T04:33:11;10.68;;;3.00;;
76284;SDS011;65096;50.998;7.098;2023-04-15T04:35:39;6.80;;;3.03;;
76284;SDS011;65096;50.998;7.098;2023-04-15T04:38:06;6.07;;;3.30;;
76284;SDS011;65096;50.998;7.098;2023-04-15T04:40:32;5.82;;;2.88;;
76284;SDS011;65096;50.998;7.098;2023-04-15T04:42:59;6.57;;;3.13;;
76284;SDS011;65096;50.998;7.098;2023-04-15T04:45:26;7.63;;;3.17;;
76284;SDS011;65096;50.998;7.098;2023-04-15T04:47:53;6.90;;;2.90;;
76284;SDS011;65096;50.998;7.098;2023-04-15T04:50:19;7.03;;;3.25;;
76284;SDS011;65096;50.998;7.098;2023-04-15T04:52:47;6.43;;;3.25;;
76284;SDS011;65096;50.998;7.098;2023-04-15T04:55:14;7.22;;;3.53;;
76284;SDS011;65096;50.998;7.098;2023-04-15T04:57:41;9.25;;;4.05;;
76284;SDS011;65096;50.998;7.098;2023-04-15T05:00:08;10.48;;;3.85;;
76284;SDS011;65096;50.998;7.098;2023-04-15T05:02:36;8.93;;;3.95;;
76284;SDS011;65096;50.998;7.098;2023-04-15T05:05:03;7.88;;;4.38;;
76284;SDS011;65096;50.998;7.098;2023-04-15T05:07:30;10.10;;;4.95;;
76284;SDS011;65096;50.998;7.098;2023-04-15T05:09:58;11.48;;;4.55;;
76284;SDS011;65096;50.998;7.098;2023-04-15T05:12:25;8.73;;;4.00;;
76284;SDS011;65096;50.998;7.098;2023-04-15T05:14:52;9.13;;;3.80;;
76284;SDS011;65096;50.998;7.098;2023-04-15T05:17:19;9.23;;;4.13;;
76284;SDS011;65096;50.998;7.098;2023-04-15T05:19:46;9.52;;;4.30;;
76284;SDS011;65096;50.998;7.098;2023-04-15T05:22:13;11.02;;;4.20;;
76284;SDS011;65096;50.998;7.098;2023-04-15T05:24:39;8.68;;;4.15;;
76284;SDS011;65096;50.998;7.098;2023-04-15T05:27:07;8.00;;;3.65;;
76284;SDS011;65096;50.998;7.098;2023-04-15T05:29:35;8.93;;;3.53;;
76284;SDS011;65096;50.998;7.098;2023-04-15T05:32:02;8.20;;;3.63;;
76284;SDS011;65096;50.998;7.098;2023-04-15T05:34:29;10.18;;;3.95;;
76284;SDS011;65096;50.998;7.098;2023-04-15T05:36:55;8.35;;;3.95;;
76284;SDS011;65096;50.998;7.098;2023-04-15T05:39:22;7.40;;;3.30;;
76284;SDS011;65096;50.998;7.098;2023-04-15T05:41:49;9.85;;;3.92;;
76284;SDS011;65096;50.998;7.098;2023-04-15T05:44:17;7.22;;;3.70;;
76284;SDS011;65096;50.998;7.098;2023-04-15T05:46:43;8.65;;;3.97;;
76284;SDS011;65096;50.998;7.098;2023-04-15T05:49:10;7.13;;;3.92;;
76284;SDS011;65096;50.998;7.098;2023-04-15T05:51:37;8.13;;;4.38;;
76284;SDS011;65096;50.998;7.098;2023-04-15T05:54:03;10.15;;;3.92;;
76284;SDS011;65096;50.998;7.098;2023-04-15T05:56:31;8.60;;;4.20;;
76284;SDS011;65096;50.998;7.098;2023-04-15T05:58:57;10.00;;;4.60;;
76284;SDS011;65096;50.998;7.098;2023-04-15T06:01:25;10.50;;;4.45;;
76284;SDS011;65096;50.998;7.098;2023-04-15T06:03:52;9.45;;;5.07;;
76284;SDS011;65096;50.998;7.098;2023-04-15T06:06:19;9.18;;;4.38;;
76284;SDS011;65096;50.998;7.098;2023-04-15T06:08:46;9.48;;;4.65;;
76284;SDS011;65096;50.998;7.098;2023-04-15T06:11:12;10.52;;;4.50;;
76284;SDS011;65096;50.998;7.098;2023-04-15T06:13:39;8.80;;;4.30;;
76284;SDS011;65096;50.998;7.098;2023-04-15T06:16:06;7.95;;;4.38;;
76284;SDS011;65096;50.998;7.098;2023-04-15T06:18:34;9.00;;;4.55;;
76284;SDS011;65096;50.998;7.098;2023-04-15T06:21:01;9.82;;;4.15;;
76284;SDS011;65096;50.998;7.098;2023-04-15T06:23:27;10.00;;;4.72;;
76284;SDS011;65096;50.998;7.098;2023-04-15T06:25:54;11.00;;;4.88;;
76284;SDS011;65096;50.998;7.098;2023-04-15T06:28:21;10.93;;;5.13;;
76284;SDS011;65096;50.998;7.098;2023-04-15T06:30:47;9.75;;;5.30;;
76284;SDS011;65096;50.998;7.098;2023-04-15T06:33:14;9.93;;;5.25;;
76284;SDS011;65096;50.998;7.098;2023-04-15T06:35:43;9.93;;;5.15;;
76284;SDS011;65096;50.998;7.098;2023-04-15T06:38:09;9.55;;;4.70;;
76284;SDS011;65096;50.998;7.098;2023-04-15T06:40:36;9.85;;;5.47;;
76284;SDS011;65096;50.998;7.098;2023-04-15T06:43:03;11.55;;;5.00;;
76284;SDS011;65096;50.998;7.098;2023-04-15T06:45:30;11.38;;;4.80;;
76284;SDS011;65096;50.998;7.098;2023-04-15T06:47:56;11.50;;;5.10;;
76284;SDS011;65096;50.998;7.098;2023-04-15T06:50:23;11.23;;;4.68;;
76284;SDS011;65096;50.998;7.098;2023-04-15T06:52:52;11.07;;;4.85;;
76284;SDS011;65096;50.998;7.098;2023-04-15T06:55:19;11.48;;;5.65;;
76284;SDS011;65096;50.998;7.098;2023-04-15T06:57:46;10.20;;;4.65;;
76284;SDS011;65096;50.998;7.098;2023-04-15T07:00:13;10.35;;;4.75;;
76284;SDS011;65096;50.998;7.098;2023-04-15T07:02:40;9.00;;;4.65;;
76284;SDS011;65096;50.998;7.098;2023-04-15T07:05:06;9.20;;;4.75;;
76284;SDS011;65096;50.998;7.098;2023-04-15T07:07:34;12.00;;;5.32;;
76284;SDS011;65096;50.998;7.098;2023-04-15T07:10:03;10.70;;;5.45;;
76284;SDS011;65096;50.998;7.098;2023-04-15T07:12:30;10.85;;;5.80;;
76284;SDS011;65096;50.998;7.098;2023-04-15T07:14:57;11.50;;;5.22;;
76284;SDS011;65096;50.998;7.098;2023-04-15T07:17:23;9.70;;;5.28;;
76284;SDS011;65096;50.998;7.098;2023-04-15T07:19:50;11.45;;;4.60;;
76284;SDS011;65096;50.998;7.098;2023-04-15T07:22:17;9.40;;;4.63;;
76284;SDS011;65096;50.998;7.098;2023-04-15T07:24:43;10.10;;;4.13;;
76284;SDS011;65096;50.998;7.098;2023-04-15T07:27:12;8.38;;;4.15;;
76284;SDS011;65096;50.998;7.098;2023-04-15T07:29:38;9.55;;;4.47;;
76284;SDS011;65096;50.998;7.098;2023-04-15T07:32:05;8.70;;;4.15;;
76284;SDS011;65096;50.998;7.098;2023-04-15T07:34:32;9.25;;;4.35;;
76284;SDS011;65096;50.998;7.098;2023-04-15T07:36:59;8.85;;;4.15;;
76284;SDS011;65096;50.998;7.098;2023-04-15T07:39:26;8.25;;;3.70;;
76284;SDS011;65096;50.998;7.098;2023-04-15T07:41:53;7.78;;;3.72;;
76284;SDS011;65096;50.998;7.098;2023-04-15T07:44:21;7.68;;;2.85;;
76284;SDS011;65096;50.998;7.098;2023-04-15T07:46:48;7.25;;;2.25;;
76284;SDS011;65096;50.998;7.098;2023-04-15T07:49:15;5.95;;;2.92;;
76284;SDS011;65096;50.998;7.098;2023-04-15T07:51:43;6.22;;;2.60;;
76284;SDS011;65096;50.998;7.098;2023-04-15T07:54:10;7.07;;;2.72;;
76284;SDS011;65096;50.998;7.098;2023-04-15T07:56:37;5.30;;;2.10;;
76284;SDS011;65096;50.998;7.098;2023-04-15T07:59:04;5.80;;;2.22;;
76284;SDS011;65096;50.998;7.098;2023-04-15T08:01:32;5.70;;;2.17;;
76284;SDS011;65096;50.998;7.098;2023-04-15T08:03:59;5.03;;;1.75;;
76284;SDS011;65096;50.998;7.098;2023-04-15T08:06:25;4.43;;;1.85;;
76284;SDS011;65096;50.998;7.098;2023-04-15T08:08:53;5.72;;;2.13;;
76284;SDS011;65096;50.998;7.098;2023-04-15T08:11:19;4.35;;;2.00;;
76284;SDS011;65096;50.998;7.098;2023-04-15T08:13:47;5.07;;;1.90;;
76284;SDS011;65096;50.998;7.098;2023-04-15T08:16:16;4.93;;;1.73;;
76284;SDS011;65096;50.998;7.098;2023-04-15T08:18:45;5.47;;;1.90;;
76284;SDS011;65096;50.998;7.098;2023-04-15T08:21:12;4.97;;;1.98;;
76284;SDS011;65096;50.998;7.098;2023-04-15T08:23:39;4.13;;;1.83;;
76284;SDS011;65096;50.998;7.098;2023-04-15T08:26:06;7.13;;;2.40;;
76284;SDS011;65096;50.998;7.098;2023-04-15T08:28:33;10.20;;;2.38;;
76284;SDS011;65096;50.998;7.098;2023-04-15T08:31:00;17.38;;;3.28;;
76284;SDS011;65096;50.998;7.098;2023-04-15T08:33:28;26.45;;;7.35;;
76284;SDS011;65096;50.998;7.098;2023-04-15T08:35:56;7.03;;;2.80;;
76284;SDS011;65096;50.998;7.098;2023-04-15T08:38:22;11.30;;;2.63;;
76284;SDS011;65096;50.998;7.098;2023-04-15T08:40:49;3.80;;;1.83;;
76284;SDS011;65096;50.998;7.098;2023-04-15T08:43:17;4.25;;;1.88;;
76284;SDS011;65096;50.998;7.098;2023-04-15T08:45:49;4.47;;;1.70;;
76284;SDS011;65096;50.998;7.098;2023-04-15T08:48:17;4.13;;;1.90;;
76284;SDS011;65096;50.998;7.098;2023-04-15T08:50:44;5.00;;;2.00;;
76284;SDS011;65096;50.998;7.098;2023-04-15T08:53:13;4.05;;;2.00;;
76284;SDS011;65096;50.998;7.098;2023-04-15T08:55:42;5.38;;;1.70;;
76284;SDS011;65096;50.998;7.098;2023-04-15T08:58:10;4.20;;;1.60;;
76284;SDS011;65096;50.998;7.098;2023-04-15T09:00:37;3.35;;;1.55;;
76284;SDS011;65096;50.998;7.098;2023-04-15T09:03:04;17.95;;;4.43;;
76284;SDS011;65096;50.998;7.098;2023-04-15T09:05:32;22.58;;;5.00;;
76284;SDS011;65096;50.998;7.098;2023-04-15T09:07:59;8.05;;;2.15;;
76284;SDS011;65096;50.998;7.098;2023-04-15T09:10:27;9.38;;;2.88;;
76284;SDS011;65096;50.998;7.098;2023-04-15T09:12:55;6.25;;;2.50;;
76284;SDS011;65096;50.998;7.098;2023-04-15T09:15:22;5.60;;;2.03;;
76284;SDS011;65096;50.998;7.098;2023-04-15T09:17:51;6.25;;;2.28;;
76284;SDS011;65096;50.998;7.098;2023-04-15T09:20:18;3.35;;;1.65;;
76284;SDS011;65096;50.998;7.098;2023-04-15T09:22:45;4.78;;;2.20;;
76284;SDS011;65096;50.998;7.098;2023-04-15T09:25:30;5.95;;;2.42;;
76284;SDS011;65096;50.998;7.098;2023-04-15T09:27:57;5.20;;;2.40;;
76284;SDS011;65096;50.998;7.098;2023-04-15T09:30:26;5.05;;;1.98;;
76284;SDS011;65096;50.998;7.098;2023-04-15T09:32:54;4.40;;;2.13;;
76284;SDS011;65096;50.998;7.098;2023-04-15T09:35:22;3.88;;;1.80;;
76284;SDS011;65096;50.998;7.098;2023-04-15T09:37:51;5.43;;;2.25;;
76284;SDS011;65096;50.998;7.098;2023-04-15T09:40:31;6.18;;;2.60;;
76284;SDS011;65096;50.998;7.098;2023-04-15T09:42:58;3.50;;;1.63;;
76284;SDS011;65096;50.998;7.098;2023-04-15T09:45:26;3.03;;;1.70;;
76284;SDS011;65096;50.998;7.098;2023-04-15T09:47:53;4.10;;;1.80;;
76284;SDS011;65096;50.998;7.098;2023-04-15T09:50:20;3.72;;;1.90;;
76284;SDS011;65096;50.998;7.098;2023-04-15T09:52:46;4.07;;;1.90;;
76284;SDS011;65096;50.998;7.098;2023-04-15T09:55:13;5.07;;;2.00;;
76284;SDS011;65096;50.998;7.098;2023-04-15T09:57:42;4.13;;;1.95;;
76284;SDS011;65096;50.998;7.098;2023-04-15T10:00:11;4.25;;;2.00;;
76284;SDS011;65096;50.998;7.098;2023-04-15T10:02:39;4.88;;;2.10;;
76284;SDS011;65096;50.998;7.098;2023-04-15T10:05:07;6.82;;;2.75;;
76284;SDS011;65096;50.998;7.098;2023-04-15T10:07:36;4.47;;;1.88;;
76284;SDS011;65096;50.998;7.098;2023-04-15T10:10:05;5.85;;;1.95;;
76284;SDS011;65096;50.998;7.098;2023-04-15T10:12:33;4.65;;;2.10;;
76284;SDS011;65096;50.998;7.098;2023-04-15T10:15:04;5.05;;;2.13;;
76284;SDS011;65096;50.998;7.098;2023-04-15T10:17:32;4.68;;;2.40;;
76284;SDS011;65096;50.998;7.098;2023-04-15T10:20:01;6.50;;;2.97;;
76284;SDS011;65096;50.998;7.098;2023-04-15T10:22:28;7.55;;;3.92;;
76284;SDS011;65096;50.998;7.098;2023-04-15T10:24:56;6.22;;;3.05;;
76284;SDS011;65096;50.998;7.098;2023-04-15T10:27:23;5.57;;;2.85;;
76284;SDS011;65096;50.998;7.098;2023-04-15T10:29:51;6.35;;;2.85;;
76284;SDS011;65096;50.998;7.098;2023-04-15T10:32:20;6.85;;;2.90;;
76284;SDS011;65096;50.998;7.098;2023-04-15T10:34:49;6.68;;;3.03;;
76284;SDS011;65096;50.998;7.098;2023-04-15T10:37:20;6.68;;;2.95;;
76284;SDS011;65096;50.998;7.098;2023-04-15T10:39:48;8.38;;;3.50;;
76284;SDS011;65096;50.998;7.098;2023-04-15T10:42:15;5.47;;;2.60;;
76284;SDS011;65096;50.998;7.098;2023-04-15T10:44:43;5.55;;;2.72;;
76284;SDS011;65096;50.998;7.098;2023-04-15T10:47:14;6.47;;;2.88;;
76284;SDS011;65096;50.998;7.098;2023-04-15T10:49:45;6.90;;;3.30;;
76284;SDS011;65096;50.998;7.098;2023-04-15T10:52:13;6.22;;;2.80;;
76284;SDS011;65096;50.998;7.098;2023-04-15T10:54:41;5.93;;;2.97;;
76284;SDS011;65096;50.998;7.098;2023-04-15T10:57:13;6.38;;;2.80;;
76284;SDS011;65096;50.998;7.098;2023-04-15T11:00:01;11.55;;;7.43;;
76284;SDS011;65096;50.998;7.098;2023-04-15T11:02:45;9.90;;;5.55;;
76284;SDS011;65096;50.998;7.098;2023-04-15T11:05:14;5.50;;;2.83;;
76284;SDS011;65096;50.998;7.098;2023-04-15T11:07:49;12.65;;;7.95;;
76284;SDS011;65096;50.998;7.098;2023-04-15T11:13:19;5.65;;;2.85;;
76284;SDS011;65096;50.998;7.098;2023-04-15T11:15:59;5.95;;;2.72;;
76284;SDS011;65096;50.998;7.098;2023-04-15T11:18:28;5.15;;;2.50;;
76284;SDS011;65096;50.998;7.098;2023-04-15T11:21:01;5.50;;;2.60;;
76284;SDS011;65096;50.998;7.098;2023-04-15T11:23:30;4.97;;;2.47;;
76284;SDS011;65096;50.998;7.098;2023-04-15T11:25:59;5.20;;;2.90;;
76284;SDS011;65096;50.998;7.098;2023-04-15T11:28:26;4.82;;;2.60;;
76284;SDS011;65096;50.998;7.098;2023-04-15T11:30:55;5.60;;;2.40;;
76284;SDS011;65096;50.998;7.098;2023-04-15T11:33:22;5.63;;;2.40;;
76284;SDS011;65096;50.998;7.098;2023-04-15T11:35:50;4.43;;;2.42;;
76284;SDS011;65096;50.998;7.098;2023-04-15T11:38:20;6.10;;;3.25;;
76284;SDS011;65096;50.998;7.098;2023-04-15T11:40:47;7.43;;;3.10;;
76284;SDS011;65096;50.998;7.098;2023-04-15T11:43:16;6.25;;;2.60;;
76284;SDS011;65096;50.998;7.098;2023-04-15T11:45:49;4.07;;;2.45;;
76284;SDS011;65096;50.998;7.098;2023-04-15T11:48:18;5.10;;;2.63;;
76284;SDS011;65096;50.998;7.098;2023-04-15T11:50:48;4.97;;;2.72;;
76284;SDS011;65096;50.998;7.098;2023-04-15T11:53:18;4.60;;;2.42;;
76284;SDS011;65096;50.998;7.098;2023-04-15T11:55:48;5.00;;;2.53;;
76284;SDS011;65096;50.998;7.098;2023-04-15T11:58:16;5.28;;;2.85;;
76284;SDS011;65096;50.998;7.098;2023-04-15T12:00:45;5.97;;;2.88;;
76284;SDS011;65096;50.998;7.098;2023-04-15T12:03:17;6.97;;;2.65;;
76284;SDS011;65096;50.998;7.098;2023-04-15T12:06:04;5.18;;;2.60;;
76284;SDS011;65096;50.998;7.098;2023-04-15T12:11:32;5.38;;;2.42;;
76284;SDS011;65096;50.998;7.098;2023-04-15T12:14:08;6.38;;;2.92;;
76284;SDS011;65096;50.998;7.098;2023-04-15T12:16:37;6.68;;;3.45;;
76284;SDS011;65096;50.998;7.098;2023-04-15T12:19:06;5.75;;;3.10;;
76284;SDS011;65096;50.998;7.098;2023-04-15T12:21:35;6.40;;;3.13;;
76284;SDS011;65096;50.998;7.098;2023-04-15T12:24:04;6.07;;;3.08;;
76284;SDS011;65096;50.998;7.098;2023-04-15T12:26:35;7.05;;;3.78;;
76284;SDS011;65096;50.998;7.098;2023-04-15T12:29:04;7.03;;;3.40;;
76284;SDS011;65096;50.998;7.098;2023-04-15T12:31:32;6.90;;;3.40;;
76284;SDS011;65096;50.998;7.098;2023-04-15T12:34:00;6.57;;;3.45;;
76284;SDS011;65096;50.998;7.098;2023-04-15T12:36:27;6.78;;;3.00;;
76284;SDS011;65096;50.998;7.098;2023-04-15T12:38:54;5.35;;;2.80;;
76284;SDS011;65096;50.998;7.098;2023-04-15T12:41:21;6.20;;;3.05;;
76284;SDS011;65096;50.998;7.098;2023-04-15T12:43:50;5.28;;;2.95;;
76284;SDS011;65096;50.998;7.098;2023-04-15T12:46:17;5.93;;;3.00;;
76284;SDS011;65096;50.998;7.098;2023-04-15T12:48:44;7.18;;;3.55;;
76284;SDS011;65096;50.998;7.098;2023-04-15T12:51:11;7.75;;;3.75;;
76284;SDS011;65096;50.998;7.098;2023-04-15T12:53:37;6.03;;;2.92;;
76284;SDS011;65096;50.998;7.098;2023-04-15T12:56:04;5.93;;;3.03;;
76284;SDS011;65096;50.998;7.098;2023-04-15T12:58:31;6.97;;;3.30;;
76284;SDS011;65096;50.998;7.098;2023-04-15T13:01:00;6.70;;;3.30;;
76284;SDS011;65096;50.998;7.098;2023-04-15T13:03:27;6.63;;;3.28;;
76284;SDS011;65096;50.998;7.098;2023-04-15T13:05:54;7.65;;;3.40;;
76284;SDS011;65096;50.998;7.098;2023-04-15T13:08:21;11.25;;;6.07;;
76284;SDS011;65096;50.998;7.098;2023-04-15T13:10:49;7.90;;;4.45;;
76284;SDS011;65096;50.998;7.098;2023-04-15T13:13:15;10.13;;;5.20;;
76284;SDS011;65096;50.998;7.098;2023-04-15T13:15:42;8.77;;;4.75;;
76284;SDS011;65096;50.998;7.098;2023-04-15T13:18:11;8.38;;;4.68;;
76284;SDS011;65096;50.998;7.098;2023-04-15T13:20:38;8.68;;;5.40;;
76284;SDS011;65096;50.998;7.098;2023-04-15T13:23:04;8.80;;;5.43;;
76284;SDS011;65096;50.998;7.098;2023-04-15T13:25:31;8.38;;;5.53;;
76284;SDS011;65096;50.998;7.098;2023-04-15T13:27:58;8.50;;;5.57;;
76284;SDS011;65096;50.998;7.098;2023-04-15T13:30:25;9.20;;;5.30;;
76284;SDS011;65096;50.998;7.098;2023-04-15T13:32:52;8.77;;;5.80;;
76284;SDS011;65096;50.998;7.098;2023-04-15T13:35:21;9.30;;;6.38;;
76284;SDS011;65096;50.998;7.098;2023-04-15T13:37:48;10.05;;;6.80;;
76284;SDS011;65096;50.998;7.098;2023-04-15T13:40:14;9.13;;;6.22;;
76284;SDS011;65096;50.998;7.098;2023-04-15T13:42:41;9.65;;;6.47;;
76284;SDS011;65096;50.998;7.098;2023-04-15T13:45:08;10.98;;;7.07;;
76284;SDS011;65096;50.998;7.098;2023-04-15T13:47:35;12.63;;;6.32;;
76284;SDS011;65096;50.998;7.098;2023-04-15T13:50:02;9.80;;;6.60;;
76284;SDS011;65096;50.998;7.098;2023-04-15T13:52:31;9.27;;;6.22;;
76284;SDS011;65096;50.998;7.098;2023-04-15T13:54:57;13.10;;;7.35;;
76284;SDS011;65096;50.998;7.098;2023-04-15T13:57:24;10.90;;;7.75;;
76284;SDS011;65096;50.998;7.098;2023-04-15T13:59:51;11.18;;;7.40;;
76284;SDS011;65096;50.998;7.098;2023-04-15T14:02:19;10.98;;;7.40;;
76284;SDS011;65096;50.998;7.098;2023-04-15T14:04:46;10.85;;;7.10;;
76284;SDS011;65096;50.998;7.098;2023-04-15T14:07:13;11.15;;;7.85;;
76284;SDS011;65096;50.998;7.098;2023-04-15T14:09:41;11.30;;;7.90;;
76284;SDS011;65096;50.998;7.098;2023-04-15T14:12:08;10.82;;;7.68;;
76284;SDS011;65096;50.998;7.098;2023-04-15T14:14:35;10.90;;;7.30;;
76284;SDS011;65096;50.998;7.098;2023-04-15T14:17:02;11.23;;;7.57;;
76284;SDS011;65096;50.998;7.098;2023-04-15T14:19:29;11.05;;;7.47;;
76284;SDS011;65096;50.998;7.098;2023-04-15T14:21:56;11.90;;;7.18;;
76284;SDS011;65096;50.998;7.098;2023-04-15T14:24:24;11.13;;;7.60;;
76284;SDS011;65096;50.998;7.098;2023-04-15T14:26:52;9.95;;;7.22;;
76284;SDS011;65096;50.998;7.098;2023-04-15T14:29:20;10.43;;;6.97;;
76284;SDS011;65096;50.998;7.098;2023-04-15T14:31:47;10.80;;;7.32;;
76284;SDS011;65096;50.998;7.098;2023-04-15T14:34:15;11.85;;;7.05;;
76284;SDS011;65096;50.998;7.098;2023-04-15T14:36:42;11.60;;;7.38;;
76284;SDS011;65096;50.998;7.098;2023-04-15T14:39:09;9.57;;;6.38;;
76284;SDS011;65096;50.998;7.098;2023-04-15T14:41:36;10.40;;;5.50;;
76284;SDS011;65096;50.998;7.098;2023-04-15T14:44:04;8.48;;;5.30;;
76284;SDS011;65096;50.998;7.098;2023-04-15T14:46:33;8.32;;;4.22;;
76284;SDS011;65096;50.998;7.098;2023-04-15T14:49:00;6.80;;;3.67;;
76284;SDS011;65096;50.998;7.098;2023-04-15T14:51:27;7.85;;;4.10;;
76284;SDS011;65096;50.998;7.098;2023-04-15T14:53:54;6.95;;;3.90;;